F/V Harvestor — WDC8229 — position and weather

sailwx.info

Track history (hours):
 
Tides and Currents Weather Stations Pressure Air Temp Water Temp Dewpoint Dewpoint Depression Visibility Wind Speed Wind Dir Waves Ship Positions

F/V Harvestor

Owner: F/V HARVESTOR INC., EDMONDS, WA. More information available from US FCC via Universal Licensing System and Coast Guard Vessel Documentation Center.

Last reported at 2015-May-30 15:33 UTC. Time now 2015-May-30 16:33 UTC.
Position N 47°38' W 122°23'.

Length 40 m.

Type: Fishing. MMSI: 367083650.

Date/timePositionNaut miles runAvg speedWind from/ knotsBaromVisibWave heightAir tempDewpointWater temp
2015-May-30 15:33N 47°38' W 122°23'0 0.8
2015-May-30 15:30N 47°38' W 122°23'0 0.0
2015-May-30 14:33N 47°38' W 122°23'0 0.3
2015-May-30 14:25N 47°38' W 122°23'0 0.0
2015-May-30 13:33N 47°38' W 122°23'0 0.1
2015-May-30 13:29N 47°38' W 122°23'0 0.0
2015-May-30 12:33N 47°38' W 122°23'0 0.0
2015-May-30 12:29N 47°38' W 122°23'0 0.0
2015-May-30 11:33N 47°38' W 122°23'0 0.0
2015-May-30 11:29N 47°38' W 122°23'0 0.0
2015-May-30 10:33N 47°38' W 122°23'0 0.5
2015-May-30 10:29N 47°38' W 122°23'0 0.0
2015-May-30 09:33N 47°38' W 122°23'0 0.0
2015-May-30 09:28N 47°38' W 122°23'0 0.0
2015-May-30 08:33N 47°38' W 122°23'0 0.0
2015-May-30 08:33N 47°38' W 122°23'0 0.0
2015-May-30 07:33N 47°38' W 122°23'0 0.0
2015-May-30 07:33N 47°38' W 122°23'0 0.0
2015-May-30 06:33N 47°38' W 122°23'0 0.0
2015-May-30 06:21N 47°38' W 122°23'0 0.0
2015-May-30 05:33N 47°38' W 122°23'0 0.0
2015-May-30 05:15N 47°38' W 122°23'0 0.1
2015-May-30 04:33N 47°38' W 122°23'0 0.0
2015-May-30 04:30N 47°38' W 122°23'0 0.0
2015-May-30 03:33N 47°38' W 122°23'0 0.1
2015-May-30 03:29N 47°38' W 122°23'0 0.0
2015-May-30 02:33N 47°38' W 122°23'0 0.0
2015-May-30 02:29N 47°38' W 122°23'0 0.0
2015-May-30 01:33N 47°38' W 122°23'0 0.0
2015-May-30 01:29N 47°38' W 122°23'0 0.0
2015-May-30 00:33N 47°38' W 122°23'0 0.5
2015-May-30 00:28N 47°38' W 122°23'0 0.0
2015-May-29 23:33N 47°38' W 122°23'0 0.0
2015-May-29 23:28N 47°38' W 122°23'0 0.0
2015-May-29 22:33N 47°38' W 122°23'0 0.0
2015-May-29 22:33N 47°38' W 122°23'1 1.2
2015-May-29 21:33N 47°38' W 122°24'018.8
2015-May-29 21:33N 47°38' W 122°25'9 8.7
2015-May-29 20:33N 47°46' W 122°27'0 8.3
2015-May-29 20:32N 47°46' W 122°27'9 9.4
2015-May-29 19:33N 47°55' W 122°31'0 8.8
2015-May-29 19:32N 47°55' W 122°31'9 9.3
2015-May-29 18:31N 48°03' W 122°39'12 9.2
2015-May-29 17:14N 48°11' W 122°52'3 9.3
2015-May-29 16:55N 48°11' W 122°57'3 8.8
2015-May-29 16:32N 48°12' W 123°02'4 8.8
2015-May-29 16:05N 48°12' W 123°08'4 7.4
2015-May-29 15:30N 48°11' W 123°14'7 7.4
2015-May-29 14:33N 48°08' W 123°24'1 1.1
2015-May-29 13:33N 48°08' W 123°25'0 0.0
2015-May-29 13:04N 48°08' W 123°25'0 0.4
2015-May-29 12:33N 48°08' W 123°25'9 8.6
2015-May-29 11:33N 48°11' W 123°13'8 8.3
2015-May-29 10:33N 48°12' W 123°00'9 8.6
2015-May-29 09:30N 48°11' W 122°47'10 7.1
2015-May-29 08:10N 48°04' W 122°38'4 7.2
2015-May-29 07:33N 47°60' W 122°36'7 7.2
2015-May-29 06:33N 47°55' W 122°28'8 8.0
2015-May-29 05:33N 47°47' W 122°26'8 8.0
2015-May-29 04:32N 47°39' W 122°27'7 8.2
2015-May-29 03:39N 47°31' W 122°28'1 9.3
2015-May-29 03:33N 47°31' W 122°29'1 8.7
2015-May-29 03:24N 47°29' W 122°30'7 8.5
2015-May-29 02:33N 47°22' W 122°32'9 9.1
2015-May-29 01:33N 47°14' W 122°35'10 7.9
2015-May-29 00:16N 47°11' W 122°49'0 0.0
2015-May-28 03:22N 47°11' W 122°50'7 7.6
2015-May-28 02:25N 47°12' W 122°39'7 7.8
2015-May-28 01:33N 47°17' W 122°33'7 7.9
2015-May-28 00:39N 47°24' W 122°32'1 8.4
2015-May-28 00:33N 47°25' W 122°32'2 8.1
2015-May-28 00:19N 47°26' W 122°31'6 8.0
2015-May-27 23:33N 47°32' W 122°28'1 8.4
2015-May-27 23:28N 47°33' W 122°28'6 6.6
2015-May-27 22:33N 47°38' W 122°23'0 0.0
2015-May-27 22:23N 47°38' W 122°23'1 1.4
2015-May-27 21:33N 47°38' W 122°25'1 8.6
2015-May-27 21:28N 47°38' W 122°26'7 7.9
2015-May-27 20:33N 47°46' W 122°27'2 8.4
2015-May-27 20:17N 47°48' W 122°28'6 8.7
2015-May-27 19:33N 47°54' W 122°30'2 8.5
2015-May-27 19:21N 47°56' W 122°31'7 9.1
2015-May-27 18:32N 48°01' W 122°39'3 9.2
2015-May-27 18:15N 48°04' W 122°40'6 8.8
2015-May-27 17:32N 48°09' W 122°45'9 9.7
2015-May-27 16:33N 48°11' W 122°59'8 8.4
2015-May-27 15:33N 48°10' W 123°11'0 1.5
2015-May-27 15:33N 48°10' W 123°11'8 8.2
2015-May-27 14:33N 48°08' W 123°23'2 2.0
2015-May-27 13:42N 48°08' W 123°25'0 0.0
2015-May-27 13:33N 48°08' W 123°25'0 0.0
2015-May-27 13:07N 48°08' W 123°25'1 0.9
2015-May-27 12:33N 48°08' W 123°25'10 9.6
2015-May-27 11:33N 48°11' W 123°11'1 9.1
2015-May-27 11:27N 48°12' W 123°10'8 8.8
2015-May-27 10:31N 48°12' W 122°57'2 9.3
2015-May-27 10:21N 48°12' W 122°55'7 8.9
2015-May-27 09:32N 48°10' W 122°45'9 8.5
2015-May-27 08:28N 48°02' W 122°37'2 8.2
2015-May-27 08:16N 48°01' W 122°36'6 8.0
2015-May-27 07:33N 47°57' W 122°31'2 8.6
2015-May-27 07:22N 47°55' W 122°29'7 8.4
2015-May-27 06:33N 47°49' W 122°27'0 8.2
2015-May-27 06:31N 47°49' W 122°26'2 8.4
2015-May-27 06:16N 47°46' W 122°26'6 8.3
2015-May-27 05:33N 47°41' W 122°27'8 8.2
2015-May-27 04:33N 47°33' W 122°28'0 8.3
2015-May-27 04:31N 47°32' W 122°28'8 8.3
2015-May-27 03:33N 47°25' W 122°32'8 8.1
2015-May-27 02:33N 47°17' W 122°33'10 7.6
2015-May-27 01:17N 47°11' W 122°44'6 7.7
2015-May-27 00:29N 47°09' W 122°53'4 0.2
2015-May-26 02:32N 47°10' W 122°47'8 8.3
2015-May-26 01:33N 47°13' W 122°36'8 8.2
2015-May-26 00:33N 47°21' W 122°33'8 7.9
2015-May-25 23:33N 47°29' W 122°30'5 8.1
2015-May-25 22:55N 47°34' W 122°27'3 8.5
2015-May-25 22:33N 47°36' W 122°25'1 8.6
2015-May-25 22:30N 47°36' W 122°24'2 1.7
2015-May-25 21:33N 47°38' W 122°23'0 0.0
2015-May-25 21:29N 47°38' W 122°23'0 0.0
2015-May-25 20:33N 47°38' W 122°23'0 0.0
2015-May-25 20:29N 47°38' W 122°23'0 0.0
2015-May-25 19:34N 47°38' W 122°23'0 0.0
2015-May-25 19:29N 47°38' W 122°23'0 0.0
2015-May-25 18:34N 47°38' W 122°23'0 0.0
2015-May-25 18:33N 47°38' W 122°23'0 0.0
2015-May-25 17:34N 47°38' W 122°23'0 0.0
2015-May-25 17:32N 47°38' W 122°23'0 0.0
2015-May-25 16:34N 47°38' W 122°23'0 1.5
2015-May-25 16:32N 47°38' W 122°23'0 0.0
2015-May-25 15:34N 47°38' W 122°23'0 0.2
2015-May-25 15:32N 47°38' W 122°23'0 0.0
2015-May-25 14:34N 47°38' W 122°23'0 0.0
2015-May-25 14:31N 47°38' W 122°23'0 0.0
2015-May-25 13:34N 47°38' W 122°23'0 0.1
2015-May-25 13:31N 47°38' W 122°23'0 0.0
2015-May-25 12:33N 47°38' W 122°23'0 0.8
2015-May-25 12:30N 47°38' W 122°23'0 0.0
2015-May-25 11:34N 47°38' W 122°23'0 0.0
2015-May-25 11:30N 47°38' W 122°23'0 0.0
2015-May-25 10:34N 47°38' W 122°23'0 0.6
2015-May-25 10:29N 47°38' W 122°23'0 0.0
2015-May-25 09:34N 47°38' W 122°23'0 0.2
2015-May-25 09:22N 47°38' W 122°23'0 0.0
2015-May-25 08:34N 47°38' W 122°23'0 2.7
2015-May-25 08:33N 47°38' W 122°23'0 0.0
2015-May-25 07:34N 47°38' W 122°23'0 0.0
2015-May-25 07:32N 47°38' W 122°23'0 0.0
2015-May-25 06:34N 47°38' W 122°23'0 0.1
2015-May-25 06:31N 47°38' W 122°23'0 0.0
2015-May-25 06:10N 47°38' W 122°23'0 0.0
2015-May-25 05:34N 47°38' W 122°23'0 0.0
2015-May-25 04:34N 47°38' W 122°23'0 0.0
2015-May-25 04:24N 47°38' W 122°23'0 0.0
2015-May-25 03:34N 47°38' W 122°23'0 0.1
2015-May-25 03:29N 47°38' W 122°23'0 0.0
2015-May-25 02:33N 47°38' W 122°23'0 0.5
2015-May-25 02:28N 47°38' W 122°23'0 0.0
2015-May-25 01:34N 47°38' W 122°23'0 0.0
2015-May-25 01:28N 47°38' W 122°23'0 0.0
2015-May-25 00:34N 47°38' W 122°23'0 0.0
2015-May-25 00:33N 47°38' W 122°23'0 0.0
2015-May-24 23:34N 47°38' W 122°23'029.4
2015-May-24 23:33N 47°38' W 122°23'0 0.0
2015-May-24 22:33N 47°38' W 122°23'0 0.0
2015-May-24 22:33N 47°38' W 122°23'0 0.0
2015-May-24 21:34N 47°38' W 122°23'0 0.3
2015-May-24 21:32N 47°38' W 122°23'0 0.0
2015-May-24 20:34N 47°38' W 122°23'0 0.0
2015-May-24 20:31N 47°38' W 122°23'0 0.0
2015-May-24 19:34N 47°38' W 122°23'0 0.0
2015-May-24 19:31N 47°38' W 122°23'0 0.0
2015-May-24 18:34N 47°38' W 122°23'0 0.2
2015-May-24 18:31N 47°38' W 122°23'0 0.0
2015-May-24 17:34N 47°38' W 122°23'0 0.1
2015-May-24 17:30N 47°38' W 122°23'0 0.0
2015-May-24 16:33N 47°38' W 122°23'0 0.6
2015-May-24 16:29N 47°38' W 122°23'0 0.0
2015-May-24 15:34N 47°38' W 122°23'0 0.6
2015-May-24 15:29N 47°38' W 122°23'0 0.0
2015-May-24 14:34N 47°38' W 122°23'0 0.0
2015-May-24 14:29N 47°38' W 122°23'0 0.0
2015-May-24 13:34N 47°38' W 122°23'0 0.5
2015-May-24 13:28N 47°38' W 122°23'0 0.0
2015-May-24 12:34N 47°38' W 122°23'0 0.5
2015-May-24 12:28N 47°38' W 122°23'0 0.0
2015-May-24 11:33N 47°38' W 122°23'0 0.1
2015-May-24 11:29N 47°38' W 122°23'0 0.0
2015-May-24 10:34N 47°38' W 122°23'0 0.0
2015-May-24 10:33N 47°38' W 122°23'0 0.0
2015-May-24 09:34N 47°38' W 122°23'0 0.0
2015-May-24 09:33N 47°38' W 122°23'0 0.0
2015-May-24 08:34N 47°38' W 122°23'0 0.0
2015-May-24 08:33N 47°38' W 122°23'0 0.0
2015-May-24 07:34N 47°38' W 122°23'0 0.4
2015-May-24 07:32N 47°38' W 122°23'0 0.0
2015-May-24 06:34N 47°38' W 122°23'0 0.5
2015-May-24 06:33N 47°38' W 122°23'0 0.0
2015-May-24 06:08N 47°38' W 122°23'0 0.0
2015-May-24 05:34N 47°38' W 122°23'0 0.0
2015-May-24 04:34N 47°38' W 122°23'0 2.4
2015-May-24 04:32N 47°38' W 122°23'0 0.0
2015-May-24 03:34N 47°38' W 122°23'0 0.0
2015-May-24 03:32N 47°38' W 122°23'0 0.0
2015-May-24 02:33N 47°38' W 122°23'0 0.3
2015-May-24 02:32N 47°38' W 122°23'0 0.0
2015-May-24 01:34N 47°38' W 122°23'0 0.2
2015-May-24 01:31N 47°38' W 122°23'0 0.4
2015-May-24 00:34N 47°38' W 122°23'0 2.9
2015-May-24 00:32N 47°38' W 122°23'2 2.4
2015-May-23 23:34N 47°39' W 122°26'0 8.2
2015-May-23 23:30N 47°39' W 122°26'7 7.7
2015-May-23 22:33N 47°47' W 122°27'1 8.4
2015-May-23 22:26N 47°48' W 122°28'7 8.3
2015-May-23 21:34N 47°55' W 122°30'1 7.0
2015-May-23 21:25N 47°55' W 122°31'6 6.7
2015-May-23 20:33N 47°59' W 122°37'6 5.8
2015-May-23 19:33N 48°05' W 122°40'6 5.6
2015-May-23 18:32N 48°09' W 122°46'7 6.6
2015-May-23 17:33N 48°11' W 122°55'0 6.6
2015-May-23 17:29N 48°11' W 122°56'7 7.5
2015-May-23 16:33N 48°12' W 123°06'1 8.6
2015-May-23 16:27N 48°11' W 123°08'8 8.7
2015-May-23 15:34N 48°09' W 123°18'6 6.1
2015-May-23 14:36N 48°08' W 123°27'0 0.0
2015-May-23 14:24N 48°08' W 123°27'0 0.0
2015-May-23 13:56N 48°08' W 123°27'0 0.0
2015-May-23 13:32N 48°08' W 123°27'0 0.0
2015-May-23 12:27N 48°08' W 123°27'0 0.0
2015-May-23 12:19N 48°08' W 123°27'0 0.0
2015-May-23 11:32N 48°08' W 123°27'1 1.1
2015-May-23 10:34N 48°08' W 123°26'0 0.3
2015-May-23 09:34N 48°08' W 123°25'0 0.0
2015-May-23 09:08N 48°08' W 123°25'0 0.0
2015-May-23 08:34N 48°08' W 123°25'5 5.9
2015-May-23 07:38N 48°10' W 123°17'110.0
2015-May-23 07:33N 48°10' W 123°16'2 9.1
2015-May-23 07:18N 48°11' W 123°13'6 8.5
2015-May-23 06:34N 48°13' W 123°04'8 8.3
2015-May-23 05:33N 48°12' W 122°52'7 7.3
2015-May-23 04:32N 48°09' W 122°42'7 6.5
2015-May-23 03:25N 48°02' W 122°37'5 6.0
2015-May-23 02:35N 47°58' W 122°33'0 7.4
2015-May-23 02:34N 47°58' W 122°33'0 7.1
2015-May-23 02:30N 47°57' W 122°33'7 7.3
2015-May-23 01:34N 47°52' W 122°27'1 7.9
2015-May-23 01:24N 47°50' W 122°27'7 8.3
2015-May-23 00:33N 47°43' W 122°26'1 8.0
2015-May-23 00:29N 47°43' W 122°26'6 6.1
2015-May-22 23:34N 47°38' W 122°23'0 1.1
2015-May-22 23:29N 47°38' W 122°23'8 8.3
2015-May-22 22:34N 47°31' W 122°29'1 9.1
2015-May-22 22:29N 47°30' W 122°29'9 9.5
2015-May-22 21:34N 47°22' W 122°32'5 9.7
2015-May-22 21:03N 47°17' W 122°32'510.4
2015-May-22 20:34N 47°13' W 122°36'9 8.0
2015-May-22 19:30N 47°11' W 122°49'8 1.0
2015-May-22 11:25N 47°04' W 122°55'5 0.3
2015-May-21 20:17N 47°09' W 122°54'5 6.8
2015-May-21 19:33N 47°10' W 122°47'8 7.5
2015-May-21 18:30N 47°13' W 122°36'5 5.4
2015-May-21 17:33N 47°17' W 122°33'5 5.2
2015-May-21 16:33N 47°21' W 122°27'4 8.2
2015-May-21 16:02N 47°23' W 122°22'4 8.4
2015-May-21 15:34N 47°27' W 122°25'2 8.6
2015-May-21 15:17N 47°29' W 122°26'6 8.7
2015-May-21 14:33N 47°35' W 122°28'0 7.8
2015-May-21 14:32N 47°35' W 122°28'8 8.6
2015-May-21 13:34N 47°44' W 122°28'0 8.6
2015-May-21 13:32N 47°44' W 122°28'8 8.7
2015-May-21 12:34N 47°52' W 122°29'0 9.1
2015-May-21 12:31N 47°53' W 122°29'9 9.2
2015-May-21 11:33N 48°00' W 122°37'9 8.9
2015-May-21 10:33N 48°08' W 122°43'10 9.2
2015-May-21 09:29N 48°11' W 122°57'8 8.5
2015-May-21 08:33N 48°11' W 123°09'2 7.9
2015-May-21 08:15N 48°11' W 123°12'5 7.7
2015-May-21 07:33N 48°09' W 123°20'4 3.8
2015-May-21 06:33N 48°08' W 123°25'0 0.0
2015-May-21 05:34N 48°08' W 123°25'5 4.7
2015-May-21 04:33N 48°09' W 123°18'3 8.6
2015-May-21 04:13N 48°10' W 123°14'5 7.8
2015-May-21 03:33N 48°12' W 123°07'7 7.1
2015-May-21 02:32N 48°12' W 122°56'7 6.8
2015-May-21 01:32N 48°11' W 122°46'4 4.0
2015-May-21 00:29N 48°08' W 122°41'2 2.6
2015-May-20 23:32N 48°06' W 122°39'6 5.6
2015-May-20 22:32N 48°01' W 122°37'6 6.3
2015-May-20 21:35N 47°56' W 122°31'0 7.7
2015-May-20 21:34N 47°56' W 122°31'7 8.0
2015-May-20 20:45N 47°50' W 122°27'2 8.6
2015-May-20 20:34N 47°49' W 122°27'0 8.7
2015-May-20 20:30N 47°48' W 122°26'8 8.6
2015-May-20 19:34N 47°40' W 122°27'1 9.1
2015-May-20 19:30N 47°40' W 122°27'4 4.7
2015-May-20 18:34N 47°35' W 122°26'1 9.1
2015-May-20 18:29N 47°35' W 122°26'9 9.5
2015-May-20 17:34N 47°26' W 122°31'1010.4
2015-May-20 16:33N 47°16' W 122°33'  
Track history (hours):
 
Tides and Currents Weather Stations Pressure Air Temp Water Temp Dewpoint Dewpoint Depression Visibility Wind Speed Wind Dir Waves Ship Positions

F/V Harvestor

Owner: F/V HARVESTOR INC., EDMONDS, WA. More information available from US FCC via Universal Licensing System and Coast Guard Vessel Documentation Center.

Last reported at 2015-May-30 15:33 UTC. Time now 2015-May-30 16:33 UTC.
Position N 47°38' W 122°23'.

Length 40 m.

Type: Fishing. MMSI: 367083650.

Date/timePositionNaut miles runAvg speedWind from/ knotsBaromVisibWave heightAir tempDewpointWater temp
2015-May-30 15:33N 47°38' W 122°23'0 0.8
2015-May-30 15:30N 47°38' W 122°23'0 0.0
2015-May-30 14:33N 47°38' W 122°23'0 0.3
2015-May-30 14:25N 47°38' W 122°23'0 0.0
2015-May-30 13:33N 47°38' W 122°23'0 0.1
2015-May-30 13:29N 47°38' W 122°23'0 0.0
2015-May-30 12:33N 47°38' W 122°23'0 0.0
2015-May-30 12:29N 47°38' W 122°23'0 0.0
2015-May-30 11:33N 47°38' W 122°23'0 0.0
2015-May-30 11:29N 47°38' W 122°23'0 0.0
2015-May-30 10:33N 47°38' W 122°23'0 0.5
2015-May-30 10:29N 47°38' W 122°23'0 0.0
2015-May-30 09:33N 47°38' W 122°23'0 0.0
2015-May-30 09:28N 47°38' W 122°23'0 0.0
2015-May-30 08:33N 47°38' W 122°23'0 0.0
2015-May-30 08:33N 47°38' W 122°23'0 0.0
2015-May-30 07:33N 47°38' W 122°23'0 0.0
2015-May-30 07:33N 47°38' W 122°23'0 0.0
2015-May-30 06:33N 47°38' W 122°23'0 0.0
2015-May-30 06:21N 47°38' W 122°23'0 0.0
2015-May-30 05:33N 47°38' W 122°23'0 0.0
2015-May-30 05:15N 47°38' W 122°23'0 0.1
2015-May-30 04:33N 47°38' W 122°23'0 0.0
2015-May-30 04:30N 47°38' W 122°23'0 0.0
2015-May-30 03:33N 47°38' W 122°23'0 0.1
2015-May-30 03:29N 47°38' W 122°23'0 0.0
2015-May-30 02:33N 47°38' W 122°23'0 0.0
2015-May-30 02:29N 47°38' W 122°23'0 0.0
2015-May-30 01:33N 47°38' W 122°23'0 0.0
2015-May-30 01:29N 47°38' W 122°23'0 0.0
2015-May-30 00:33N 47°38' W 122°23'0 0.5
2015-May-30 00:28N 47°38' W 122°23'0 0.0
2015-May-29 23:33N 47°38' W 122°23'0 0.0
2015-May-29 23:28N 47°38' W 122°23'0 0.0
2015-May-29 22:33N 47°38' W 122°23'0 0.0
2015-May-29 22:33N 47°38' W 122°23'1 1.2
2015-May-29 21:33N 47°38' W 122°24'018.8
2015-May-29 21:33N 47°38' W 122°25'9 8.7
2015-May-29 20:33N 47°46' W 122°27'0 8.3
2015-May-29 20:32N 47°46' W 122°27'9 9.4
2015-May-29 19:33N 47°55' W 122°31'0 8.8
2015-May-29 19:32N 47°55' W 122°31'9 9.3
2015-May-29 18:31N 48°03' W 122°39'12 9.2
2015-May-29 17:14N 48°11' W 122°52'3 9.3
2015-May-29 16:55N 48°11' W 122°57'3 8.8
2015-May-29 16:32N 48°12' W 123°02'4 8.8
2015-May-29 16:05N 48°12' W 123°08'4 7.4
2015-May-29 15:30N 48°11' W 123°14'7 7.4
2015-May-29 14:33N 48°08' W 123°24'1 1.1
2015-May-29 13:33N 48°08' W 123°25'0 0.0
2015-May-29 13:04N 48°08' W 123°25'0 0.4
2015-May-29 12:33N 48°08' W 123°25'9 8.6
2015-May-29 11:33N 48°11' W 123°13'8 8.3
2015-May-29 10:33N 48°12' W 123°00'9 8.6
2015-May-29 09:30N 48°11' W 122°47'10 7.1
2015-May-29 08:10N 48°04' W 122°38'4 7.2
2015-May-29 07:33N 47°60' W 122°36'7 7.2
2015-May-29 06:33N 47°55' W 122°28'8 8.0
2015-May-29 05:33N 47°47' W 122°26'8 8.0
2015-May-29 04:32N 47°39' W 122°27'7 8.2
2015-May-29 03:39N 47°31' W 122°28'1 9.3
2015-May-29 03:33N 47°31' W 122°29'1 8.7
2015-May-29 03:24N 47°29' W 122°30'7 8.5
2015-May-29 02:33N 47°22' W 122°32'9 9.1
2015-May-29 01:33N 47°14' W 122°35'10 7.9
2015-May-29 00:16N 47°11' W 122°49'0 0.0
2015-May-28 03:22N 47°11' W 122°50'7 7.6
2015-May-28 02:25N 47°12' W 122°39'7 7.8
2015-May-28 01:33N 47°17' W 122°33'7 7.9
2015-May-28 00:39N 47°24' W 122°32'1 8.4
2015-May-28 00:33N 47°25' W 122°32'2 8.1
2015-May-28 00:19N 47°26' W 122°31'6 8.0
2015-May-27 23:33N 47°32' W 122°28'1 8.4
2015-May-27 23:28N 47°33' W 122°28'6 6.6
2015-May-27 22:33N 47°38' W 122°23'0 0.0
2015-May-27 22:23N 47°38' W 122°23'1 1.4
2015-May-27 21:33N 47°38' W 122°25'1 8.6
2015-May-27 21:28N 47°38' W 122°26'7 7.9
2015-May-27 20:33N 47°46' W 122°27'2 8.4
2015-May-27 20:17N 47°48' W 122°28'6 8.7
2015-May-27 19:33N 47°54' W 122°30'2 8.5
2015-May-27 19:21N 47°56' W 122°31'7 9.1
2015-May-27 18:32N 48°01' W 122°39'3 9.2
2015-May-27 18:15N 48°04' W 122°40'6 8.8
2015-May-27 17:32N 48°09' W 122°45'9 9.7
2015-May-27 16:33N 48°11' W 122°59'8 8.4
2015-May-27 15:33N 48°10' W 123°11'0 1.5
2015-May-27 15:33N 48°10' W 123°11'8 8.2
2015-May-27 14:33N 48°08' W 123°23'2 2.0
2015-May-27 13:42N 48°08' W 123°25'0 0.0
2015-May-27 13:33N 48°08' W 123°25'0 0.0
2015-May-27 13:07N 48°08' W 123°25'1 0.9
2015-May-27 12:33N 48°08' W 123°25'10 9.6
2015-May-27 11:33N 48°11' W 123°11'1 9.1
2015-May-27 11:27N 48°12' W 123°10'8 8.8
2015-May-27 10:31N 48°12' W 122°57'2 9.3
2015-May-27 10:21N 48°12' W 122°55'7 8.9
2015-May-27 09:32N 48°10' W 122°45'9 8.5
2015-May-27 08:28N 48°02' W 122°37'2 8.2
2015-May-27 08:16N 48°01' W 122°36'6 8.0
2015-May-27 07:33N 47°57' W 122°31'2 8.6
2015-May-27 07:22N 47°55' W 122°29'7 8.4
2015-May-27 06:33N 47°49' W 122°27'0 8.2
2015-May-27 06:31N 47°49' W 122°26'2 8.4
2015-May-27 06:16N 47°46' W 122°26'6 8.3
2015-May-27 05:33N 47°41' W 122°27'8 8.2
2015-May-27 04:33N 47°33' W 122°28'0 8.3
2015-May-27 04:31N 47°32' W 122°28'8 8.3
2015-May-27 03:33N 47°25' W 122°32'8 8.1
2015-May-27 02:33N 47°17' W 122°33'10 7.6
2015-May-27 01:17N 47°11' W 122°44'6 7.7
2015-May-27 00:29N 47°09' W 122°53'4 0.2
2015-May-26 02:32N 47°10' W 122°47'8 8.3
2015-May-26 01:33N 47°13' W 122°36'8 8.2
2015-May-26 00:33N 47°21' W 122°33'8 7.9
2015-May-25 23:33N 47°29' W 122°30'5 8.1
2015-May-25 22:55N 47°34' W 122°27'3 8.5
2015-May-25 22:33N 47°36' W 122°25'1 8.6
2015-May-25 22:30N 47°36' W 122°24'2 1.7
2015-May-25 21:33N 47°38' W 122°23'0 0.0
2015-May-25 21:29N 47°38' W 122°23'0 0.0
2015-May-25 20:33N 47°38' W 122°23'0 0.0
2015-May-25 20:29N 47°38' W 122°23'0 0.0
2015-May-25 19:34N 47°38' W 122°23'0 0.0
2015-May-25 19:29N 47°38' W 122°23'0 0.0
2015-May-25 18:34N 47°38' W 122°23'0 0.0
2015-May-25 18:33N 47°38' W 122°23'0 0.0
2015-May-25 17:34N 47°38' W 122°23'0 0.0
2015-May-25 17:32N 47°38' W 122°23'0 0.0
2015-May-25 16:34N 47°38' W 122°23'0 1.5
2015-May-25 16:32N 47°38' W 122°23'0 0.0
2015-May-25 15:34N 47°38' W 122°23'0 0.2
2015-May-25 15:32N 47°38' W 122°23'0 0.0
2015-May-25 14:34N 47°38' W 122°23'0 0.0
2015-May-25 14:31N 47°38' W 122°23'0 0.0
2015-May-25 13:34N 47°38' W 122°23'0 0.1
2015-May-25 13:31N 47°38' W 122°23'0 0.0
2015-May-25 12:33N 47°38' W 122°23'0 0.8
2015-May-25 12:30N 47°38' W 122°23'0 0.0
2015-May-25 11:34N 47°38' W 122°23'0 0.0
2015-May-25 11:30N 47°38' W 122°23'0 0.0
2015-May-25 10:34N 47°38' W 122°23'0 0.6
2015-May-25 10:29N 47°38' W 122°23'0 0.0
2015-May-25 09:34N 47°38' W 122°23'0 0.2
2015-May-25 09:22N 47°38' W 122°23'0 0.0
2015-May-25 08:34N 47°38' W 122°23'0 2.7
2015-May-25 08:33N 47°38' W 122°23'0 0.0
2015-May-25 07:34N 47°38' W 122°23'0 0.0
2015-May-25 07:32N 47°38' W 122°23'0 0.0
2015-May-25 06:34N 47°38' W 122°23'0 0.1
2015-May-25 06:31N 47°38' W 122°23'0 0.0
2015-May-25 06:10N 47°38' W 122°23'0 0.0
2015-May-25 05:34N 47°38' W 122°23'0 0.0
2015-May-25 04:34N 47°38' W 122°23'0 0.0
2015-May-25 04:24N 47°38' W 122°23'0 0.0
2015-May-25 03:34N 47°38' W 122°23'0 0.1
2015-May-25 03:29N 47°38' W 122°23'0 0.0
2015-May-25 02:33N 47°38' W 122°23'0 0.5
2015-May-25 02:28N 47°38' W 122°23'0 0.0
2015-May-25 01:34N 47°38' W 122°23'0 0.0
2015-May-25 01:28N 47°38' W 122°23'0 0.0
2015-May-25 00:34N 47°38' W 122°23'0 0.0
2015-May-25 00:33N 47°38' W 122°23'0 0.0
2015-May-24 23:34N 47°38' W 122°23'029.4
2015-May-24 23:33N 47°38' W 122°23'0 0.0
2015-May-24 22:33N 47°38' W 122°23'0 0.0
2015-May-24 22:33N 47°38' W 122°23'0 0.0
2015-May-24 21:34N 47°38' W 122°23'0 0.3
2015-May-24 21:32N 47°38' W 122°23'0 0.0
2015-May-24 20:34N 47°38' W 122°23'0 0.0
2015-May-24 20:31N 47°38' W 122°23'0 0.0
2015-May-24 19:34N 47°38' W 122°23'0 0.0
2015-May-24 19:31N 47°38' W 122°23'0 0.0
2015-May-24 18:34N 47°38' W 122°23'0 0.2
2015-May-24 18:31N 47°38' W 122°23'0 0.0
2015-May-24 17:34N 47°38' W 122°23'0 0.1
2015-May-24 17:30N 47°38' W 122°23'0 0.0
2015-May-24 16:33N 47°38' W 122°23'0 0.6
2015-May-24 16:29N 47°38' W 122°23'0 0.0
2015-May-24 15:34N 47°38' W 122°23'0 0.6
2015-May-24 15:29N 47°38' W 122°23'0 0.0
2015-May-24 14:34N 47°38' W 122°23'0 0.0
2015-May-24 14:29N 47°38' W 122°23'0 0.0
2015-May-24 13:34N 47°38' W 122°23'0 0.5
2015-May-24 13:28N 47°38' W 122°23'0 0.0
2015-May-24 12:34N 47°38' W 122°23'0 0.5
2015-May-24 12:28N 47°38' W 122°23'0 0.0
2015-May-24 11:33N 47°38' W 122°23'0 0.1
2015-May-24 11:29N 47°38' W 122°23'0 0.0
2015-May-24 10:34N 47°38' W 122°23'0 0.0
2015-May-24 10:33N 47°38' W 122°23'0 0.0
2015-May-24 09:34N 47°38' W 122°23'0 0.0
2015-May-24 09:33N 47°38' W 122°23'0 0.0
2015-May-24 08:34N 47°38' W 122°23'0 0.0
2015-May-24 08:33N 47°38' W 122°23'0 0.0
2015-May-24 07:34N 47°38' W 122°23'0 0.4
2015-May-24 07:32N 47°38' W 122°23'0 0.0
2015-May-24 06:34N 47°38' W 122°23'0 0.5
2015-May-24 06:33N 47°38' W 122°23'0 0.0
2015-May-24 06:08N 47°38' W 122°23'0 0.0
2015-May-24 05:34N 47°38' W 122°23'0 0.0
2015-May-24 04:34N 47°38' W 122°23'0 2.4
2015-May-24 04:32N 47°38' W 122°23'0 0.0
2015-May-24 03:34N 47°38' W 122°23'0 0.0
2015-May-24 03:32N 47°38' W 122°23'0 0.0
2015-May-24 02:33N 47°38' W 122°23'0 0.3
2015-May-24 02:32N 47°38' W 122°23'0 0.0
2015-May-24 01:34N 47°38' W 122°23'0 0.2
2015-May-24 01:31N 47°38' W 122°23'0 0.4
2015-May-24 00:34N 47°38' W 122°23'0 2.9
2015-May-24 00:32N 47°38' W 122°23'2 2.4
2015-May-23 23:34N 47°39' W 122°26'0 8.2
2015-May-23 23:30N 47°39' W 122°26'7 7.7
2015-May-23 22:33N 47°47' W 122°27'1 8.4
2015-May-23 22:26N 47°48' W 122°28'7 8.3
2015-May-23 21:34N 47°55' W 122°30'1 7.0
2015-May-23 21:25N 47°55' W 122°31'6 6.7
2015-May-23 20:33N 47°59' W 122°37'6 5.8
2015-May-23 19:33N 48°05' W 122°40'6 5.6
2015-May-23 18:32N 48°09' W 122°46'7 6.6
2015-May-23 17:33N 48°11' W 122°55'0 6.6
2015-May-23 17:29N 48°11' W 122°56'7 7.5
2015-May-23 16:33N 48°12' W 123°06'1 8.6
2015-May-23 16:27N 48°11' W 123°08'8 8.7
2015-May-23 15:34N 48°09' W 123°18'6 6.1
2015-May-23 14:36N 48°08' W 123°27'0 0.0
2015-May-23 14:24N 48°08' W 123°27'0 0.0
2015-May-23 13:56N 48°08' W 123°27'0 0.0
2015-May-23 13:32N 48°08' W 123°27'0 0.0
2015-May-23 12:27N 48°08' W 123°27'0 0.0
2015-May-23 12:19N 48°08' W 123°27'0 0.0
2015-May-23 11:32N 48°08' W 123°27'1 1.1
2015-May-23 10:34N 48°08' W 123°26'0 0.3
2015-May-23 09:34N 48°08' W 123°25'0 0.0
2015-May-23 09:08N 48°08' W 123°25'0 0.0
2015-May-23 08:34N 48°08' W 123°25'5 5.9
2015-May-23 07:38N 48°10' W 123°17'110.0
2015-May-23 07:33N 48°10' W 123°16'2 9.1
2015-May-23 07:18N 48°11' W 123°13'6 8.5
2015-May-23 06:34N 48°13' W 123°04'8 8.3
2015-May-23 05:33N 48°12' W 122°52'7 7.3
2015-May-23 04:32N 48°09' W 122°42'7 6.5
2015-May-23 03:25N 48°02' W 122°37'5 6.0
2015-May-23 02:35N 47°58' W 122°33'0 7.4
2015-May-23 02:34N 47°58' W 122°33'0 7.1
2015-May-23 02:30N 47°57' W 122°33'7 7.3
2015-May-23 01:34N 47°52' W 122°27'1 7.9
2015-May-23 01:24N 47°50' W 122°27'7 8.3
2015-May-23 00:33N 47°43' W 122°26'1 8.0
2015-May-23 00:29N 47°43' W 122°26'6 6.1
2015-May-22 23:34N 47°38' W 122°23'0 1.1
2015-May-22 23:29N 47°38' W 122°23'8 8.3
2015-May-22 22:34N 47°31' W 122°29'1 9.1
2015-May-22 22:29N 47°30' W 122°29'9 9.5
2015-May-22 21:34N 47°22' W 122°32'5 9.7
2015-May-22 21:03N 47°17' W 122°32'510.4
2015-May-22 20:34N 47°13' W 122°36'9 8.0
2015-May-22 19:30N 47°11' W 122°49'8 1.0
2015-May-22 11:25N 47°04' W 122°55'5 0.3
2015-May-21 20:17N 47°09' W 122°54'5 6.8
2015-May-21 19:33N 47°10' W 122°47'8 7.5
2015-May-21 18:30N 47°13' W 122°36'5 5.4
2015-May-21 17:33N 47°17' W 122°33'5 5.2
2015-May-21 16:33N 47°21' W 122°27'4 8.2
2015-May-21 16:02N 47°23' W 122°22'4 8.4
2015-May-21 15:34N 47°27' W 122°25'2 8.6
2015-May-21 15:17N 47°29' W 122°26'6 8.7
2015-May-21 14:33N 47°35' W 122°28'0 7.8
2015-May-21 14:32N 47°35' W 122°28'8 8.6
2015-May-21 13:34N 47°44' W 122°28'0 8.6
2015-May-21 13:32N 47°44' W 122°28'8 8.7
2015-May-21 12:34N 47°52' W 122°29'0 9.1
2015-May-21 12:31N 47°53' W 122°29'9 9.2
2015-May-21 11:33N 48°00' W 122°37'9 8.9
2015-May-21 10:33N 48°08' W 122°43'10 9.2
2015-May-21 09:29N 48°11' W 122°57'8 8.5
2015-May-21 08:33N 48°11' W 123°09'2 7.9
2015-May-21 08:15N 48°11' W 123°12'5 7.7
2015-May-21 07:33N 48°09' W 123°20'4 3.8
2015-May-21 06:33N 48°08' W 123°25'0 0.0
2015-May-21 05:34N 48°08' W 123°25'5 4.7
2015-May-21 04:33N 48°09' W 123°18'3 8.6
2015-May-21 04:13N 48°10' W 123°14'5 7.8
2015-May-21 03:33N 48°12' W 123°07'7 7.1
2015-May-21 02:32N 48°12' W 122°56'7 6.8
2015-May-21 01:32N 48°11' W 122°46'4 4.0
2015-May-21 00:29N 48°08' W 122°41'2 2.6
2015-May-20 23:32N 48°06' W 122°39'6 5.6
2015-May-20 22:32N 48°01' W 122°37'6 6.3
2015-May-20 21:35N 47°56' W 122°31'0 7.7
2015-May-20 21:34N 47°56' W 122°31'7 8.0
2015-May-20 20:45N 47°50' W 122°27'2 8.6
2015-May-20 20:34N 47°49' W 122°27'0 8.7
2015-May-20 20:30N 47°48' W 122°26'8 8.6
2015-May-20 19:34N 47°40' W 122°27'1 9.1
2015-May-20 19:30N 47°40' W 122°27'4 4.7
2015-May-20 18:34N 47°35' W 122°26'1 9.1
2015-May-20 18:29N 47°35' W 122°26'9 9.5
2015-May-20 17:34N 47°26' W 122°31'1010.4
2015-May-20 16:33N 47°16' W 122°33'  

Dump ship's entire track history